createdAt,value
2024-02-14T00:00:16.092Z,79.95
2024-02-14T00:02:45.520Z,80.84
2024-02-14T00:05:13.098Z,79.85
2024-02-14T00:07:41.044Z,79.77
2024-02-14T00:10:08.258Z,79.56
2024-02-14T00:12:36.690Z,79.22
2024-02-14T00:15:04.870Z,79.43
2024-02-14T00:17:31.807Z,78.89
2024-02-14T00:19:58.665Z,80.27
2024-02-14T00:22:25.842Z,80.92
2024-02-14T00:24:52.706Z,80.46
2024-02-14T00:27:19.465Z,80.93
2024-02-14T00:29:48.010Z,81.06
2024-02-14T00:32:15.032Z,80.16
2024-02-14T00:34:42.158Z,80.38
2024-02-14T00:37:09.479Z,80.30
2024-02-14T00:39:36.224Z,81.21
2024-02-14T00:42:03.206Z,81.85
2024-02-14T00:44:30.019Z,81.18
2024-02-14T00:47:03.722Z,80.90
2024-02-14T00:49:30.760Z,80.61
2024-02-14T00:51:57.598Z,80.03
2024-02-14T00:54:24.275Z,80.61
2024-02-14T00:56:51.044Z,80.24
2024-02-14T00:59:18.062Z,79.82
2024-02-14T01:01:45.927Z,79.85
2024-02-14T01:04:12.942Z,80.66
2024-02-14T01:06:39.904Z,80.20
2024-02-14T01:09:06.723Z,79.86
2024-02-14T01:11:33.559Z,79.75
2024-02-14T01:14:00.332Z,80.76
2024-02-14T01:16:27.496Z,82.00
2024-02-14T01:18:54.602Z,82.03
2024-02-14T01:21:21.381Z,81.71
2024-02-14T01:23:48.177Z,81.92
2024-02-14T01:26:15.681Z,81.95
2024-02-14T01:28:44.857Z,82.03
2024-02-14T01:31:13.149Z,82.39
2024-02-14T01:33:41.519Z,82.08
2024-02-14T01:36:08.500Z,82.01
2024-02-14T01:38:36.924Z,80.98
2024-02-14T01:41:05.099Z,80.43
2024-02-14T01:43:32.329Z,80.60
2024-02-14T01:46:08.997Z,80.47
2024-02-14T01:48:36.558Z,80.05
2024-02-14T01:51:04.816Z,79.70
2024-02-14T01:53:33.164Z,79.91
2024-02-14T01:56:01.239Z,80.04
2024-02-14T01:58:29.915Z,80.16
2024-02-14T02:00:58.114Z,80.48
2024-02-14T02:03:25.933Z,80.32
2024-02-14T02:05:56.642Z,80.67
2024-02-14T02:08:23.671Z,80.04
2024-02-14T02:10:50.714Z,80.64
2024-02-14T02:13:17.785Z,80.33
2024-02-14T02:15:46.082Z,79.70
2024-02-14T02:18:13.024Z,79.91
2024-02-14T02:20:40.225Z,79.60
2024-02-14T02:23:07.115Z,79.91
2024-02-14T02:25:33.876Z,79.31
2024-02-14T02:28:00.971Z,78.67
2024-02-14T02:30:28.616Z,78.38
2024-02-14T02:32:55.325Z,78.85
2024-02-14T02:35:22.324Z,78.89
2024-02-14T02:37:51.828Z,79.81
2024-02-14T02:40:18.900Z,80.47
2024-02-14T02:42:48.636Z,80.83
2024-02-14T02:45:15.408Z,80.30
2024-02-14T02:47:42.166Z,80.22
2024-02-14T02:50:09.273Z,79.62
2024-02-14T02:52:36.192Z,80.34
2024-02-14T02:55:03.205Z,80.78
2024-02-14T02:57:30.715Z,81.62
2024-02-14T02:59:59.074Z,82.41
2024-02-14T03:02:26.939Z,82.38
2024-02-14T03:04:54.314Z,82.16
2024-02-14T03:07:22.033Z,82.28
2024-02-14T03:09:48.876Z,82.43
2024-02-14T03:12:17.675Z,82.20
2024-02-14T03:14:45.482Z,81.75
2024-02-14T03:17:12.547Z,80.61
2024-02-14T03:19:40.417Z,80.89
2024-02-14T03:22:10.415Z,80.85
2024-02-14T03:24:38.457Z,80.92
2024-02-14T03:27:06.534Z,80.46
2024-02-14T03:29:33.656Z,80.07
2024-02-14T03:32:05.301Z,79.96
2024-02-14T03:34:35.054Z,79.98
2024-02-14T03:37:03.396Z,80.14
2024-02-14T03:39:30.843Z,80.81
2024-02-14T03:41:57.940Z,80.70
2024-02-14T03:44:24.597Z,80.46
2024-02-14T03:46:51.330Z,80.87
2024-02-14T03:49:18.353Z,80.53
2024-02-14T03:51:45.194Z,80.03
2024-02-14T03:54:13.224Z,80.57
2024-02-14T03:56:40.128Z,79.98
2024-02-14T03:59:07.251Z,79.79
2024-02-14T04:01:34.329Z,79.18
2024-02-14T04:04:01.390Z,78.74
2024-02-14T04:06:28.873Z,78.79
2024-02-14T04:08:55.719Z,78.78
2024-02-14T04:11:22.460Z,78.64
2024-02-14T04:13:49.139Z,78.32
2024-02-14T04:16:15.797Z,78.07
2024-02-14T04:18:44.001Z,78.02
2024-02-14T04:21:11.171Z,78.23
2024-02-14T04:23:37.989Z,77.84
2024-02-14T04:26:04.928Z,78.58
2024-02-14T04:28:31.618Z,79.00
2024-02-14T04:30:58.966Z,78.90
2024-02-14T04:33:26.833Z,79.22
2024-02-14T04:35:53.654Z,79.48
2024-02-14T04:38:21.011Z,79.41
2024-02-14T04:40:47.709Z,79.56
2024-02-14T04:43:14.557Z,80.31
2024-02-14T04:45:41.312Z,80.39
2024-02-14T04:48:09.289Z,80.86
2024-02-14T04:50:36.256Z,81.18
2024-02-14T04:53:02.975Z,80.96
2024-02-14T04:55:30.418Z,81.11
2024-02-14T04:57:57.117Z,80.68
2024-02-14T05:00:23.969Z,80.26
2024-02-14T05:02:50.862Z,80.02
2024-02-14T05:05:17.948Z,79.81
2024-02-14T05:07:44.732Z,79.61
2024-02-14T05:10:11.537Z,79.79
2024-02-14T05:12:38.504Z,79.64
2024-02-14T05:15:05.874Z,79.47
2024-02-14T05:17:32.842Z,79.05
2024-02-14T05:19:59.757Z,78.73
2024-02-14T05:22:26.991Z,78.17
2024-02-14T05:24:53.673Z,77.83
2024-02-14T05:27:21.091Z,78.02
2024-02-14T05:29:47.769Z,77.92
2024-02-14T05:32:15.130Z,78.22
2024-02-14T05:34:41.860Z,77.38
2024-02-14T05:37:09.171Z,77.39
2024-02-14T05:39:35.870Z,77.55
2024-02-14T05:42:02.660Z,77.66
2024-02-14T05:44:31.403Z,78.22
2024-02-14T05:46:58.244Z,79.64
2024-02-14T05:49:25.965Z,79.34
2024-02-14T05:51:54.558Z,78.68
2024-02-14T05:54:21.266Z,78.60
2024-02-14T05:56:48.599Z,77.88
2024-02-14T05:59:15.424Z,77.74
2024-02-14T06:01:42.075Z,77.48
2024-02-14T06:04:08.850Z,77.53
2024-02-14T06:06:35.698Z,76.96
2024-02-14T06:09:02.516Z,76.59
2024-02-14T06:11:29.188Z,75.88
2024-02-14T06:13:55.946Z,76.10
2024-02-14T06:16:22.598Z,77.00
2024-02-14T06:18:49.659Z,77.40
2024-02-14T06:21:16.522Z,77.59
2024-02-14T06:23:43.398Z,77.46
2024-02-14T06:26:10.077Z,77.83
2024-02-14T06:28:36.807Z,78.02
2024-02-14T06:31:03.523Z,78.14
2024-02-14T06:33:30.567Z,79.13
2024-02-14T06:35:57.694Z,79.42
2024-02-14T06:38:25.687Z,79.24
2024-02-14T06:40:52.395Z,78.93
2024-02-14T06:43:19.123Z,78.81
2024-02-14T06:45:45.826Z,78.87
2024-02-14T06:48:12.672Z,78.65
2024-02-14T06:50:39.890Z,78.01
2024-02-14T06:53:07.520Z,77.86
2024-02-14T06:55:34.260Z,77.52
2024-02-14T06:58:01.259Z,77.36
2024-02-14T07:00:29.741Z,77.66
2024-02-14T07:02:56.728Z,77.88
2024-02-14T07:05:23.624Z,77.60
2024-02-14T07:07:51.036Z,77.42
2024-02-14T07:10:18.250Z,77.42
2024-02-14T07:12:44.964Z,77.04
2024-02-14T07:15:12.539Z,77.61
2024-02-14T07:17:42.412Z,77.97
2024-02-14T07:20:10.502Z,77.96
2024-02-14T07:22:37.619Z,77.66
2024-02-14T07:25:06.271Z,78.00
2024-02-14T07:27:33.302Z,77.96
2024-02-14T07:30:00.382Z,77.88
2024-02-14T07:32:28.980Z,77.85
2024-02-14T07:34:55.860Z,76.83
2024-02-14T07:37:22.776Z,76.18
2024-02-14T07:39:49.547Z,76.55
2024-02-14T07:42:16.596Z,75.94
2024-02-14T07:44:44.034Z,75.14
2024-02-14T07:47:10.948Z,74.59
2024-02-14T07:49:37.696Z,73.60
2024-02-14T07:52:04.945Z,72.92
2024-02-14T07:54:31.815Z,72.65
2024-02-14T07:56:58.521Z,71.53
2024-02-14T07:59:25.258Z,70.48
2024-02-14T08:01:52.110Z,70.31
2024-02-14T08:04:18.831Z,70.53
2024-02-14T08:06:51.609Z,70.30
2024-02-14T08:09:18.373Z,70.43
2024-02-14T08:11:45.096Z,69.43
2024-02-14T08:14:12.641Z,68.71
2024-02-14T08:16:39.336Z,68.75
2024-02-14T08:19:06.190Z,69.70
2024-02-14T08:21:33.258Z,69.29
2024-02-14T08:24:01.485Z,69.22
2024-02-14T08:26:29.781Z,70.29
2024-02-14T08:28:56.808Z,69.41
2024-02-14T08:31:23.827Z,69.24
2024-02-14T08:33:51.125Z,68.62
2024-02-14T08:36:20.175Z,67.82
2024-02-14T08:38:47.123Z,67.70
2024-02-14T08:41:13.851Z,67.67
2024-02-14T08:43:41.556Z,68.02
2024-02-14T08:46:12.513Z,67.96
2024-02-14T08:48:47.210Z,67.48
2024-02-14T08:51:14.969Z,66.85
2024-02-14T08:53:43.843Z,67.83
2024-02-14T08:56:10.563Z,67.83
2024-02-14T08:58:37.393Z,67.37
2024-02-14T09:01:13.035Z,67.48
2024-02-14T09:03:44.878Z,67.23
2024-02-14T09:06:11.756Z,67.08
2024-02-14T09:08:38.872Z,67.17
2024-02-14T09:11:05.574Z,67.03
2024-02-14T09:13:32.290Z,67.11
2024-02-14T09:15:59.022Z,66.46
2024-02-14T09:18:26.788Z,66.80
2024-02-14T09:20:54.097Z,64.92
2024-02-14T09:23:21.889Z,65.81
2024-02-14T09:25:48.610Z,65.91
2024-02-14T09:28:17.170Z,65.42
2024-02-14T09:30:43.956Z,65.62
2024-02-14T09:33:11.052Z,64.40
2024-02-14T09:35:41.023Z,64.05
2024-02-14T09:38:07.792Z,62.62
2024-02-14T09:40:34.932Z,62.41
2024-02-14T09:43:05.591Z,62.08
2024-02-14T09:45:35.061Z,62.08
2024-02-14T09:48:02.725Z,61.99
2024-02-14T09:50:32.189Z,60.93
2024-02-14T09:53:00.015Z,60.48
2024-02-14T09:55:27.920Z,60.19
2024-02-14T09:57:56.023Z,59.14
2024-02-14T10:00:23.635Z,59.35
2024-02-14T10:02:51.296Z,58.69
2024-02-14T10:05:18.162Z,58.20
2024-02-14T10:07:45.569Z,56.64
2024-02-14T10:10:12.891Z,56.16
2024-02-14T10:12:41.605Z,56.65
2024-02-14T10:15:09.438Z,56.56
2024-02-14T10:17:36.242Z,56.76
2024-02-14T10:20:07.670Z,56.89
2024-02-14T10:22:36.804Z,57.11
2024-02-14T10:25:09.993Z,56.63
2024-02-14T10:27:38.857Z,55.08
2024-02-14T10:30:11.344Z,55.39
2024-02-14T10:32:39.616Z,55.50
2024-02-14T10:35:14.520Z,55.23
2024-02-14T10:37:41.597Z,54.84
2024-02-14T10:40:10.157Z,51.49
2024-02-14T10:42:36.943Z,52.63
2024-02-14T10:45:04.938Z,52.19
2024-02-14T10:47:33.734Z,51.32
2024-02-14T10:50:03.734Z,50.98
2024-02-14T10:52:36.381Z,51.21
2024-02-14T10:55:05.433Z,50.04
2024-02-14T10:57:33.462Z,48.03
2024-02-14T11:00:04.437Z,37.93
2024-02-14T11:02:33.738Z,37.27
2024-02-14T11:05:01.874Z,37.78
2024-02-14T11:07:29.982Z,35.68
2024-02-14T11:10:06.084Z,36.93
2024-02-14T11:12:37.952Z,37.58
2024-02-14T11:15:17.535Z,41.21
2024-02-14T11:17:44.768Z,41.04
2024-02-14T11:20:36.204Z,39.12
2024-02-14T11:23:12.187Z,39.52
2024-02-14T11:25:39.753Z,38.29
2024-02-14T11:28:24.724Z,39.52
2024-02-14T11:30:51.538Z,39.11
2024-02-14T11:33:20.393Z,40.45
2024-02-14T11:35:51.286Z,40.34
2024-02-14T11:38:19.201Z,39.93
2024-02-14T11:40:46.212Z,40.10
2024-02-14T11:43:15.631Z,39.69
2024-02-14T11:45:43.287Z,39.08
2024-02-14T11:48:14.170Z,39.11
2024-02-14T11:50:42.722Z,39.42
2024-02-14T11:53:12.121Z,41.53
2024-02-14T11:55:39.477Z,43.62
2024-02-14T11:58:13.935Z,44.69
2024-02-14T12:00:45.752Z,46.21
2024-02-14T12:03:14.651Z,44.34
2024-02-14T12:05:44.458Z,43.06
2024-02-14T12:08:11.948Z,43.36
2024-02-14T12:10:39.064Z,43.87
2024-02-14T12:13:07.531Z,42.89
2024-02-14T12:15:48.568Z,42.59
2024-02-14T12:18:17.328Z,43.44
2024-02-14T12:20:45.249Z,43.08
2024-02-14T12:23:18.776Z,44.09
2024-02-14T12:25:48.627Z,44.20
2024-02-14T12:28:18.369Z,45.35
2024-02-14T12:30:51.273Z,43.99
2024-02-14T12:33:18.437Z,44.92
2024-02-14T12:35:47.768Z,42.70
2024-02-14T12:38:17.598Z,43.62
2024-02-14T12:40:47.612Z,43.58
2024-02-14T12:43:17.063Z,46.05
2024-02-14T12:45:45.176Z,46.06
2024-02-14T12:48:15.029Z,45.16
2024-02-14T12:50:48.963Z,44.21
2024-02-14T12:53:15.804Z,42.66
2024-02-14T12:55:42.817Z,41.16
2024-02-14T12:58:10.952Z,41.50
2024-02-14T13:00:39.246Z,42.62
2024-02-14T13:03:06.482Z,43.46
2024-02-14T13:05:33.469Z,44.80
2024-02-14T13:08:00.185Z,49.02
2024-02-14T13:10:26.879Z,53.40
2024-02-14T13:12:53.642Z,54.64
2024-02-14T13:15:20.407Z,53.52
2024-02-14T13:17:47.501Z,54.65
2024-02-14T13:20:16.404Z,55.33
2024-02-14T13:22:45.944Z,53.94
2024-02-14T13:25:15.270Z,53.52
2024-02-14T13:27:45.681Z,54.07
2024-02-14T13:30:12.787Z,51.57
2024-02-14T13:32:39.687Z,51.81
2024-02-14T13:35:10.724Z,49.56
2024-02-14T13:37:37.511Z,48.52
2024-02-14T13:40:10.085Z,48.36
2024-02-14T13:42:38.959Z,48.58
2024-02-14T13:45:11.226Z,47.33
2024-02-14T13:47:43.615Z,46.99
2024-02-14T13:50:10.993Z,46.65
2024-02-14T13:52:37.867Z,48.49
2024-02-14T13:55:06.690Z,48.02
2024-02-14T13:57:38.020Z,48.27
2024-02-14T14:00:05.785Z,49.05
2024-02-14T14:02:32.700Z,49.60
2024-02-14T14:04:59.546Z,48.09
2024-02-14T14:07:26.230Z,50.26
2024-02-14T14:09:52.933Z,49.11
2024-02-14T14:12:19.615Z,49.48
2024-02-14T14:14:46.361Z,50.85
2024-02-14T14:17:13.160Z,50.44
2024-02-14T14:19:40.816Z,50.87
2024-02-14T14:22:07.582Z,51.04
2024-02-14T14:24:34.418Z,51.37
2024-02-14T14:27:01.200Z,51.11
2024-02-14T14:29:29.278Z,51.77
2024-02-14T14:31:56.009Z,51.59
2024-02-14T14:34:23.571Z,52.13
2024-02-14T14:36:50.407Z,52.22
2024-02-14T14:39:17.172Z,53.20
2024-02-14T14:41:44.976Z,52.19
2024-02-14T14:44:12.887Z,51.99
2024-02-14T14:46:43.173Z,52.29
2024-02-14T14:49:11.120Z,52.17
2024-02-14T14:51:39.399Z,52.82
2024-02-14T14:54:06.437Z,51.86
2024-02-14T14:56:33.118Z,51.94
2024-02-14T14:59:01.051Z,51.75
2024-02-14T15:01:28.933Z,51.98
2024-02-14T15:03:55.699Z,51.97
2024-02-14T15:06:23.131Z,53.34
2024-02-14T15:08:50.220Z,52.58
2024-02-14T15:11:19.034Z,53.01
2024-02-14T15:13:47.013Z,52.26
2024-02-14T15:16:14.517Z,53.62
2024-02-14T15:18:44.495Z,53.29
2024-02-14T15:21:14.909Z,54.10
2024-02-14T15:23:42.097Z,55.09
2024-02-14T15:26:13.211Z,55.40
2024-02-14T15:28:42.792Z,55.34
2024-02-14T15:31:28.081Z,55.08
2024-02-14T15:33:56.860Z,54.60
2024-02-14T15:36:23.920Z,54.41
2024-02-14T15:38:52.800Z,56.30
2024-02-14T15:41:19.537Z,56.88
2024-02-14T15:43:46.594Z,57.18
2024-02-14T15:46:13.615Z,58.87
2024-02-14T15:48:42.377Z,61.02
2024-02-14T15:51:10.250Z,59.29
2024-02-14T15:53:39.199Z,61.10
2024-02-14T15:56:06.970Z,63.86
2024-02-14T15:58:33.734Z,66.68
2024-02-14T16:01:00.453Z,68.49
2024-02-14T16:03:28.043Z,70.40
2024-02-14T16:05:55.011Z,70.87
2024-02-14T16:08:22.612Z,71.42
2024-02-14T16:10:50.665Z,72.54
2024-02-14T16:13:17.982Z,74.51
2024-02-14T16:15:44.765Z,74.65
2024-02-14T16:18:11.551Z,73.78
2024-02-14T16:20:38.432Z,74.61
2024-02-14T16:23:06.949Z,75.99
2024-02-14T16:25:36.719Z,77.29
2024-02-14T16:28:03.891Z,78.70
2024-02-14T16:30:30.662Z,79.29
2024-02-14T16:32:58.170Z,72.23
2024-02-14T16:35:25.679Z,71.14
2024-02-14T16:37:52.400Z,71.25
2024-02-14T16:40:19.225Z,71.96
2024-02-14T16:42:45.934Z,72.14
2024-02-14T16:45:14.018Z,72.23
2024-02-14T16:47:42.480Z,72.20
2024-02-14T16:50:09.641Z,71.41
2024-02-14T16:52:36.764Z,72.76
2024-02-14T16:55:04.629Z,74.04
2024-02-14T16:57:31.538Z,74.94
2024-02-14T16:59:58.406Z,76.49
2024-02-14T17:02:25.577Z,76.71
2024-02-14T17:04:52.248Z,76.49
2024-02-14T17:07:19.238Z,76.31
2024-02-14T17:09:46.469Z,76.71
2024-02-14T17:12:13.288Z,77.91
2024-02-14T17:14:42.364Z,78.13
2024-02-14T17:17:10.872Z,78.19
2024-02-14T17:19:37.745Z,76.67
2024-02-14T17:22:13.720Z,76.47
2024-02-14T17:24:46.555Z,77.69
2024-02-14T17:27:13.607Z,78.02
2024-02-14T17:29:40.459Z,77.76
2024-02-14T17:32:12.430Z,76.61
2024-02-14T17:34:43.935Z,75.21
2024-02-14T17:37:10.664Z,74.28
2024-02-14T17:39:37.382Z,75.37
2024-02-14T17:42:04.437Z,76.21
2024-02-14T17:44:31.132Z,76.12
2024-02-14T17:46:57.786Z,75.91
2024-02-14T17:49:24.848Z,76.08
2024-02-14T17:51:52.801Z,76.58
2024-02-14T17:54:19.746Z,76.67
2024-02-14T17:56:46.507Z,76.64
2024-02-14T17:59:15.546Z,77.40
2024-02-14T18:01:45.889Z,77.51
2024-02-14T18:04:12.660Z,77.89
2024-02-14T18:06:39.450Z,77.69
2024-02-14T18:09:08.452Z,78.33
2024-02-14T18:11:35.780Z,78.45
2024-02-14T18:14:02.509Z,78.71
2024-02-14T18:16:29.277Z,78.69
2024-02-14T18:18:56.356Z,78.77
2024-02-14T18:21:23.247Z,78.23
2024-02-14T18:23:51.153Z,77.19
2024-02-14T18:26:18.125Z,77.38
2024-02-14T18:28:44.925Z,75.67
2024-02-14T18:31:13.383Z,76.42
2024-02-14T18:33:40.384Z,78.03
2024-02-14T18:36:09.043Z,78.08
2024-02-14T18:38:37.329Z,78.46
2024-02-14T18:41:04.309Z,78.81
2024-02-14T18:43:32.725Z,78.79
2024-02-14T18:45:59.432Z,78.96
2024-02-14T18:48:26.388Z,79.74
2024-02-14T18:50:53.584Z,80.58
2024-02-14T18:53:20.334Z,81.08
2024-02-14T18:55:47.085Z,81.24
2024-02-14T18:58:13.865Z,81.31
2024-02-14T19:00:40.981Z,80.68
2024-02-14T19:03:07.778Z,79.85
2024-02-14T19:05:34.546Z,79.33
2024-02-14T19:08:01.215Z,78.57
2024-02-14T19:10:27.892Z,78.49
2024-02-14T19:12:54.624Z,79.02
2024-02-14T19:15:21.806Z,79.64
2024-02-14T19:17:50.220Z,79.89
2024-02-14T19:20:16.979Z,79.97
2024-02-14T19:22:44.290Z,80.08
2024-02-14T19:25:11.381Z,79.87
2024-02-14T19:27:40.931Z,79.28
2024-02-14T19:30:08.133Z,78.73
2024-02-14T19:32:40.050Z,78.26
2024-02-14T19:35:07.484Z,77.83
2024-02-14T19:37:34.233Z,78.05
2024-02-14T19:40:01.857Z,78.39
2024-02-14T19:42:29.763Z,78.50
2024-02-14T19:44:57.322Z,77.96
2024-02-14T19:47:24.103Z,78.88
2024-02-14T19:49:50.802Z,79.39
2024-02-14T19:52:17.754Z,79.49
2024-02-14T19:54:44.914Z,79.49
2024-02-14T19:57:11.564Z,78.85
2024-02-14T19:59:38.756Z,78.16
2024-02-14T20:02:05.684Z,78.12
2024-02-14T20:04:33.102Z,77.61
2024-02-14T20:07:01.536Z,77.08
2024-02-14T20:09:28.244Z,76.21
2024-02-14T20:11:54.921Z,75.84
2024-02-14T20:14:22.268Z,75.86
2024-02-14T20:16:49.058Z,76.17
2024-02-14T20:19:16.088Z,76.85
2024-02-14T20:21:43.003Z,77.22
2024-02-14T20:24:11.006Z,77.01
2024-02-14T20:26:39.165Z,77.64
2024-02-14T20:29:07.292Z,77.86
2024-02-14T20:31:36.307Z,77.90
2024-02-14T20:34:05.632Z,78.19
2024-02-14T20:36:34.881Z,77.99
2024-02-14T20:39:03.745Z,78.44
2024-02-14T20:41:31.235Z,77.55
2024-02-14T20:43:58.389Z,77.00
2024-02-14T20:46:25.237Z,77.33
2024-02-14T20:48:53.075Z,77.23
2024-02-14T20:51:20.120Z,77.69
2024-02-14T20:53:46.898Z,77.76
2024-02-14T20:56:13.652Z,78.32
2024-02-14T20:58:52.162Z,78.00
2024-02-14T21:01:28.043Z,77.14
2024-02-14T21:03:54.771Z,76.85
2024-02-14T21:06:21.741Z,76.36
2024-02-14T21:08:48.757Z,77.03
2024-02-14T21:11:15.559Z,77.50
2024-02-14T21:13:42.229Z,77.89
2024-02-14T21:16:08.902Z,77.86
2024-02-14T21:18:35.663Z,77.82
2024-02-14T21:21:03.008Z,77.62
2024-02-14T21:23:29.822Z,78.30
2024-02-14T21:25:56.502Z,79.70
2024-02-14T21:28:23.383Z,79.76
2024-02-14T21:30:50.057Z,79.73
2024-02-14T21:33:17.546Z,79.94
2024-02-14T21:35:47.857Z,80.17
2024-02-14T21:38:16.979Z,79.95
2024-02-14T21:40:44.206Z,79.65
2024-02-14T21:43:10.765Z,79.39
2024-02-14T21:45:37.604Z,79.27
2024-02-14T21:48:04.863Z,79.42
2024-02-14T21:50:33.350Z,79.20
2024-02-14T21:53:00.119Z,79.21
2024-02-14T21:55:26.823Z,79.46
2024-02-14T21:57:53.489Z,79.93
2024-02-14T22:00:20.492Z,80.61
2024-02-14T22:02:51.260Z,81.12
2024-02-14T22:05:22.802Z,81.14
2024-02-14T22:07:49.806Z,80.66
2024-02-14T22:10:16.795Z,81.47
2024-02-14T22:12:43.982Z,81.64
2024-02-14T22:15:11.169Z,81.95
2024-02-14T22:17:39.071Z,81.38
2024-02-14T22:20:07.464Z,82.23
2024-02-14T22:22:36.560Z,82.21
2024-02-14T22:25:03.413Z,82.03
2024-02-14T22:27:30.076Z,81.88
2024-02-14T22:29:56.908Z,81.78
2024-02-14T22:32:24.020Z,81.96
2024-02-14T22:34:52.157Z,82.10
2024-02-14T22:37:19.114Z,82.57
2024-02-14T22:39:45.838Z,82.58
2024-02-14T22:42:12.987Z,82.60
2024-02-14T22:44:40.120Z,82.41
2024-02-14T22:47:10.764Z,82.70
2024-02-14T22:49:37.814Z,83.05
2024-02-14T22:52:08.111Z,83.36
2024-02-14T22:54:34.781Z,84.00
2024-02-14T22:57:01.542Z,84.27
2024-02-14T22:59:28.319Z,86.75
2024-02-14T23:01:54.995Z,86.75
2024-02-14T23:04:21.696Z,86.07
2024-02-14T23:06:48.434Z,85.62
2024-02-14T23:09:16.219Z,84.93
2024-02-14T23:11:43.463Z,84.55
2024-02-14T23:14:10.362Z,84.02
2024-02-14T23:16:37.322Z,83.46
2024-02-14T23:19:04.509Z,83.36
2024-02-14T23:21:31.903Z,82.94
2024-02-14T23:23:58.546Z,82.75
2024-02-14T23:26:25.410Z,82.15
2024-02-14T23:28:52.142Z,82.79
2024-02-14T23:31:21.658Z,82.81
2024-02-14T23:33:48.978Z,82.54
2024-02-14T23:36:16.879Z,82.63
2024-02-14T23:38:45.278Z,81.83
2024-02-14T23:41:12.265Z,80.96
2024-02-14T23:43:40.416Z,80.97
2024-02-14T23:46:07.910Z,81.06
2024-02-14T23:48:34.978Z,81.24
2024-02-14T23:51:02.104Z,81.83
2024-02-14T23:53:28.978Z,82.13
2024-02-14T23:55:57.807Z,82.25
2024-02-14T23:58:28.913Z,82.41
